Capitan Corbeta, Uruguay

10:58 AM UYT on September 01, 2014 (GMT -0300)
Capitan Curbelo International | Change Station
CLOSE
Current Station
Airport
Location: Capitan Corbeta,
Elevation: 98 ft
Nearby Weather Stations

Elev 98 ft 34.86 °S, 55.09 °W | Updated 58 minutes ago

Overcast
Overcast
55 °F
Feels Like 55 °F
N
5
Wind Variable Wind from South

Today
High -- | Low -- °F
--% Chance of Precip.
Yesterday
High -- | Low -- °F
Precip. -- in
6:59 AM 6:21 PM
Waxing Crescent, 41% visible
Pressure 29.98 in
Visibility 3.1 miles
Clouds Overcast 1000 ft
Dew Point 54 °F
Humidity 94%
Rainfall 0.00 in
Snow Depth Not available.
UV 1 out of 12
Pollen Not available.
Air Quality Not available.
Flu Activity Not available.
METAR SULS 011300Z 17004KT 5000 BR OVC010 13/12 Q1015

More Conditions Fewer Conditions

Pressure 29.98 in
Visibility 3.1 miles
Clouds Overcast 1000 ft
Dew Point 54 °F
Humidity 94%
Rainfall 0.00 in
Snow Depth Not available.
UV 1 out of 12
Pollen Not available.
Air Quality Not available.
Flu Activity Not available.
METAR SULS 011300Z 17004KT 5000 BR OVC010 13/12 Q1015

More Conditions Fewer Conditions

10-Day Weather Forecast

Almanac

Astronomy

Sep. 01, 2014 Rise Set
Actual Time 6:59 AM UYT 6:21 PM UYT
Civil Twilight 6:34 AM UYT 6:47 PM UYT
Nautical Twilight 6:04 AM UYT 7:16 PM UYT
Astronomical Twilight 5:35 AM UYT 7:45 PM UYT
Moon 10:57 AM UYT 12:06 AM UYT
Length of Visible Light 12h 13m
Length of Day
11h 22m
Tomorrow will be 2m 4s longer.
Waxing Crescent, 41% of the Moon is Illuminated
Today
Waxing Crescent
Sep 2
First Quarter
Sep 8
Full
Sep 15
Last Quarter
Sep 24
New

Yesterday's Extremes

Country Highs Country Lows

Community

WunderPhotos

Upload Photos

1,749,222 photos uploaded!

Nearby

Snow Depth

Not available.

Earthquake Activity

City Distance Mag. Time & Date
No recent earthquake activity has been reported nearby.
Minimum magnitude displayed is 2.5.

Coastal Water Temperatures

Place Temperature
No Stations Reporting

Nearby Weather Stations